createdAt,value
2023-07-27T00:00:20.190Z,26.79
2023-07-27T00:02:47.144Z,26.80
2023-07-27T00:05:15.462Z,26.78
2023-07-27T00:07:42.300Z,26.79
2023-07-27T00:10:09.139Z,26.77
2023-07-27T00:12:36.207Z,26.78
2023-07-27T00:15:03.199Z,26.74
2023-07-27T00:17:30.072Z,26.73
2023-07-27T00:19:56.872Z,26.71
2023-07-27T00:22:23.667Z,26.69
2023-07-27T00:24:50.453Z,26.65
2023-07-27T00:27:17.550Z,26.64
2023-07-27T00:29:45.787Z,26.63
2023-07-27T00:32:12.721Z,26.64
2023-07-27T00:34:39.895Z,26.61
2023-07-27T00:37:06.985Z,26.55
2023-07-27T00:39:34.922Z,26.45
2023-07-27T00:42:01.773Z,26.48
2023-07-27T00:44:28.496Z,26.47
2023-07-27T00:46:55.390Z,26.47
2023-07-27T00:49:22.864Z,26.46
2023-07-27T00:51:50.030Z,26.45
2023-07-27T00:54:18.063Z,26.43
2023-07-27T00:56:44.976Z,26.45
2023-07-27T00:59:11.980Z,26.44
2023-07-27T01:01:38.968Z,26.42
2023-07-27T01:04:05.915Z,26.41
2023-07-27T01:06:33.076Z,26.36
2023-07-27T01:09:01.684Z,26.36
2023-07-27T01:11:52.890Z,26.34
2023-07-27T01:14:19.914Z,26.31
2023-07-27T01:17:00.394Z,26.27
2023-07-27T01:19:35.935Z,26.21
2023-07-27T01:22:35.282Z,26.11
2023-07-27T01:25:35.980Z,26.06
2023-07-27T01:28:20.995Z,25.94
2023-07-27T01:30:55.183Z,25.96
2023-07-27T01:33:44.665Z,25.89
2023-07-27T01:36:39.367Z,25.83
2023-07-27T01:39:09.829Z,25.86
2023-07-27T01:41:38.720Z,25.87
2023-07-27T01:44:06.804Z,25.90
2023-07-27T01:46:34.801Z,25.87
2023-07-27T01:49:04.588Z,25.86
2023-07-27T01:51:33.241Z,25.86
2023-07-27T01:54:01.722Z,25.83
2023-07-27T01:56:30.235Z,25.77
2023-07-27T01:58:59.023Z,25.80
2023-07-27T02:01:26.176Z,25.73
2023-07-27T02:03:54.569Z,25.73
2023-07-27T02:06:21.381Z,25.82
2023-07-27T02:08:48.148Z,25.81
2023-07-27T02:11:18.530Z,25.83
2023-07-27T02:14:04.677Z,25.80
2023-07-27T02:16:37.973Z,25.82
2023-07-27T02:19:07.228Z,25.72
2023-07-27T02:21:36.391Z,25.67
2023-07-27T02:24:04.927Z,25.63
2023-07-27T02:26:32.644Z,25.55
2023-07-27T02:28:59.609Z,25.48
2023-07-27T02:31:27.458Z,25.51
2023-07-27T02:33:54.391Z,25.41
2023-07-27T02:36:21.371Z,25.40
2023-07-27T02:38:48.389Z,25.48
2023-07-27T02:41:15.236Z,25.53
2023-07-27T02:43:42.764Z,25.56
2023-07-27T02:46:09.867Z,25.61
2023-07-27T02:48:36.986Z,25.69
2023-07-27T02:51:04.073Z,25.71
2023-07-27T02:53:30.955Z,25.69
2023-07-27T02:56:02.845Z,25.71
2023-07-27T02:58:38.138Z,25.64
2023-07-27T03:01:05.493Z,25.54
2023-07-27T03:03:33.976Z,25.47
2023-07-27T03:06:08.007Z,25.38
2023-07-27T03:08:36.710Z,25.33
2023-07-27T03:11:05.733Z,25.30
2023-07-27T03:13:33.484Z,25.19
2023-07-27T03:16:03.836Z,25.16
2023-07-27T03:18:31.261Z,25.12
2023-07-27T03:20:58.053Z,24.96
2023-07-27T03:23:24.918Z,24.85
2023-07-27T03:25:51.794Z,24.87
2023-07-27T03:28:18.566Z,24.73
2023-07-27T03:30:45.379Z,24.76
2023-07-27T03:33:12.339Z,24.73
2023-07-27T03:35:39.209Z,24.74
2023-07-27T03:38:06.102Z,24.74
2023-07-27T03:40:32.958Z,24.74
2023-07-27T03:42:59.840Z,24.76
2023-07-27T03:45:27.317Z,24.77
2023-07-27T03:47:54.581Z,24.63
2023-07-27T03:50:22.161Z,24.66
2023-07-27T03:52:49.023Z,24.60
2023-07-27T03:55:19.625Z,24.65
2023-07-27T03:57:48.602Z,24.58
2023-07-27T04:00:15.474Z,24.59
2023-07-27T04:02:42.338Z,24.61
2023-07-27T04:05:09.455Z,24.65
2023-07-27T04:07:36.273Z,24.52
2023-07-27T04:10:03.530Z,24.61
2023-07-27T04:12:30.293Z,24.62
2023-07-27T04:14:57.202Z,24.60
2023-07-27T04:17:24.241Z,24.61
2023-07-27T04:19:51.225Z,24.70
2023-07-27T04:22:17.994Z,24.69
2023-07-27T04:24:46.580Z,24.72
2023-07-27T04:27:13.716Z,24.68
2023-07-27T04:29:40.661Z,24.68
2023-07-27T04:32:08.667Z,24.66
2023-07-27T04:34:35.855Z,24.63
2023-07-27T04:37:03.507Z,24.68
2023-07-27T04:39:30.331Z,24.71
2023-07-27T04:41:57.176Z,24.70
2023-07-27T04:44:23.945Z,24.71
2023-07-27T04:46:50.829Z,24.69
2023-07-27T04:49:17.869Z,24.65
2023-07-27T04:51:44.803Z,24.55
2023-07-27T04:54:11.979Z,24.60
2023-07-27T04:56:38.869Z,24.64
2023-07-27T04:59:05.941Z,24.68
2023-07-27T05:01:33.016Z,24.68
2023-07-27T05:03:59.909Z,24.78
2023-07-27T05:06:26.749Z,24.81
2023-07-27T05:08:53.597Z,24.88
2023-07-27T05:11:20.447Z,24.96
2023-07-27T05:13:47.218Z,25.00
2023-07-27T05:16:14.256Z,25.00
2023-07-27T05:18:41.185Z,25.05
2023-07-27T05:21:07.999Z,25.09
2023-07-27T05:23:34.830Z,25.08
2023-07-27T05:26:01.775Z,25.03
2023-07-27T05:28:28.572Z,25.05
2023-07-27T05:30:55.397Z,25.15
2023-07-27T05:33:22.703Z,25.25
2023-07-27T05:35:49.978Z,25.26
2023-07-27T05:38:18.163Z,25.25
2023-07-27T05:40:45.121Z,25.18
2023-07-27T05:43:11.904Z,25.08
2023-07-27T05:45:39.940Z,25.11
2023-07-27T05:48:07.864Z,25.15
2023-07-27T05:50:37.458Z,25.14
2023-07-27T05:53:06.291Z,25.25
2023-07-27T05:55:33.145Z,25.33
2023-07-27T05:58:10.345Z,25.39
2023-07-27T06:00:45.815Z,25.31
2023-07-27T06:03:12.636Z,25.31
2023-07-27T06:05:45.757Z,25.39
2023-07-27T06:08:12.798Z,25.37
2023-07-27T06:10:39.888Z,25.48
2023-07-27T06:13:06.753Z,25.52
2023-07-27T06:15:33.530Z,25.56
2023-07-27T06:18:00.455Z,25.58
2023-07-27T06:20:27.233Z,25.69
2023-07-27T06:22:54.087Z,25.82
2023-07-27T06:25:20.970Z,25.87
2023-07-27T06:27:47.769Z,26.00
2023-07-27T06:30:16.467Z,26.06
2023-07-27T06:32:43.510Z,26.07
2023-07-27T06:35:10.546Z,26.14
2023-07-27T06:37:37.447Z,26.15
2023-07-27T06:40:06.526Z,26.23
2023-07-27T06:42:34.123Z,26.29
2023-07-27T06:45:01.044Z,26.44
2023-07-27T06:47:27.931Z,26.48
2023-07-27T06:49:54.734Z,26.58
2023-07-27T06:52:21.508Z,26.64
2023-07-27T06:54:48.354Z,26.70
2023-07-27T06:57:15.115Z,26.73
2023-07-27T06:59:44.017Z,26.79
2023-07-27T07:02:10.815Z,26.82
2023-07-27T07:04:38.977Z,26.91
2023-07-27T07:07:08.127Z,26.78
2023-07-27T07:09:36.857Z,26.90
2023-07-27T07:12:05.098Z,26.89
2023-07-27T07:14:32.823Z,26.92
2023-07-27T07:17:03.076Z,26.87
2023-07-27T07:19:30.027Z,26.79
2023-07-27T07:21:56.939Z,26.83
2023-07-27T07:24:23.764Z,26.89
2023-07-27T07:26:50.608Z,27.07
2023-07-27T07:29:17.418Z,27.22
2023-07-27T07:31:44.254Z,27.39
2023-07-27T07:34:11.092Z,27.53
2023-07-27T07:36:37.955Z,27.60
2023-07-27T07:39:04.831Z,27.54
2023-07-27T07:41:32.552Z,27.60
2023-07-27T07:43:59.426Z,27.76
2023-07-27T07:46:26.185Z,27.90
2023-07-27T07:48:53.055Z,28.00
2023-07-27T07:51:19.854Z,28.06
2023-07-27T07:53:46.674Z,28.08
2023-07-27T07:56:17.785Z,28.12
2023-07-27T07:58:48.242Z,28.20
2023-07-27T08:01:15.128Z,28.18
2023-07-27T08:03:42.062Z,28.30
2023-07-27T08:06:12.229Z,28.48
2023-07-27T08:08:39.134Z,28.61
2023-07-27T08:11:06.067Z,28.73
2023-07-27T08:13:33.247Z,28.84
2023-07-27T08:16:00.055Z,28.91
2023-07-27T08:18:28.878Z,29.00
2023-07-27T08:21:06.745Z,29.07
2023-07-27T08:23:34.041Z,29.12
2023-07-27T08:26:02.007Z,29.12
2023-07-27T08:28:29.138Z,29.03
2023-07-27T08:30:56.038Z,29.00
2023-07-27T08:33:22.974Z,29.08
2023-07-27T08:35:49.925Z,29.15
2023-07-27T08:38:17.056Z,29.26
2023-07-27T08:40:57.270Z,29.29
2023-07-27T08:43:25.128Z,29.42
2023-07-27T08:45:52.850Z,29.49
2023-07-27T08:48:20.070Z,29.57
2023-07-27T08:50:49.136Z,29.52
2023-07-27T08:53:17.383Z,29.59
2023-07-27T08:55:44.260Z,29.58
2023-07-27T08:58:12.128Z,29.35
2023-07-27T09:00:42.135Z,29.43
2023-07-27T09:03:09.095Z,29.51
2023-07-27T09:05:52.738Z,29.53
2023-07-27T09:08:19.677Z,29.43
2023-07-27T09:10:46.938Z,29.59
2023-07-27T09:13:13.939Z,29.67
2023-07-27T09:15:45.455Z,29.76
2023-07-27T09:18:14.896Z,29.57
2023-07-27T09:20:42.501Z,29.79
2023-07-27T09:23:09.807Z,29.94
2023-07-27T09:25:41.294Z,29.94
2023-07-27T09:28:08.005Z,29.95
2023-07-27T09:30:36.611Z,30.02
2023-07-27T09:33:06.784Z,29.99
2023-07-27T09:35:36.458Z,29.94
2023-07-27T09:38:03.573Z,29.97
2023-07-27T09:40:33.504Z,29.93
2023-07-27T09:43:07.227Z,29.85
2023-07-27T09:45:38.921Z,29.94
2023-07-27T09:48:06.503Z,29.88
2023-07-27T09:50:36.042Z,29.70
2023-07-27T09:53:04.914Z,29.62
2023-07-27T09:55:33.835Z,29.52
2023-07-27T09:58:01.855Z,29.51
2023-07-27T10:00:28.750Z,29.44
2023-07-27T10:03:05.222Z,29.43
2023-07-27T10:05:44.178Z,29.43
2023-07-27T10:08:11.602Z,29.39
2023-07-27T10:10:43.559Z,29.38
2023-07-27T10:13:14.844Z,29.47
2023-07-27T10:15:44.128Z,29.49
2023-07-27T10:18:15.798Z,29.55
2023-07-27T10:20:42.773Z,29.52
2023-07-27T10:23:14.689Z,29.49
2023-07-27T10:25:56.924Z,29.46
2023-07-27T10:28:42.003Z,29.46
2023-07-27T10:31:15.025Z,29.50
2023-07-27T10:33:49.383Z,29.49
2023-07-27T10:36:17.036Z,29.45
2023-07-27T10:38:54.360Z,29.60
2023-07-27T10:41:27.581Z,29.62
2023-07-27T10:44:09.286Z,29.79
2023-07-27T10:46:42.727Z,29.83
2023-07-27T10:49:11.187Z,29.97
2023-07-27T10:51:39.313Z,30.31
2023-07-27T10:54:06.515Z,30.55
2023-07-27T10:56:34.175Z,30.72
2023-07-27T10:59:02.270Z,30.80
2023-07-27T11:01:34.390Z,30.99
2023-07-27T11:04:01.369Z,31.07
2023-07-27T11:06:29.424Z,31.12
2023-07-27T11:08:57.423Z,31.20
2023-07-27T11:11:25.394Z,31.19
2023-07-27T11:13:52.505Z,31.14
2023-07-27T11:16:19.651Z,31.14
2023-07-27T11:18:46.591Z,31.28
2023-07-27T11:21:13.554Z,31.00
2023-07-27T11:23:48.187Z,30.91
2023-07-27T11:26:15.405Z,30.99
2023-07-27T11:28:42.468Z,31.04
2023-07-27T11:31:09.643Z,31.19
2023-07-27T11:33:39.511Z,31.13
2023-07-27T11:36:06.273Z,31.25
2023-07-27T11:38:33.140Z,31.34
2023-07-27T11:41:29.055Z,31.44
2023-07-27T11:43:52.165Z,31.42
2023-07-27T11:46:21.105Z,31.34
2023-07-27T11:49:04.823Z,31.32
2023-07-27T11:51:34.571Z,31.38
2023-07-27T11:54:01.525Z,31.23
2023-07-27T11:56:28.373Z,30.99
2023-07-27T11:58:55.439Z,31.04
2023-07-27T12:01:23.878Z,30.98
2023-07-27T12:03:50.796Z,30.88
2023-07-27T12:06:26.174Z,30.87
2023-07-27T12:08:53.088Z,30.99
2023-07-27T12:18:52.956Z,30.79
2023-07-27T12:34:08.600Z,30.83
2023-07-27T12:36:35.467Z,30.75
2023-07-27T12:39:02.265Z,30.79
2023-07-27T12:41:29.093Z,30.76
2023-07-27T12:43:57.931Z,30.66
2023-07-27T12:46:24.982Z,30.80
2023-07-27T12:48:51.828Z,30.76
2023-07-27T12:51:18.551Z,30.49
2023-07-27T12:53:45.348Z,30.50
2023-07-27T12:56:13.113Z,30.37
2023-07-27T12:58:39.971Z,30.14
2023-07-27T13:01:06.753Z,30.13
2023-07-27T13:03:35.237Z,30.11
2023-07-27T13:06:03.207Z,30.01
2023-07-27T13:08:30.334Z,30.00
2023-07-27T13:10:57.210Z,30.15
2023-07-27T13:13:24.010Z,30.21
2023-07-27T13:15:50.838Z,30.24
2023-07-27T13:18:17.621Z,30.22
2023-07-27T13:20:44.493Z,30.20
2023-07-27T13:23:11.269Z,30.30
2023-07-27T13:25:38.498Z,30.45
2023-07-27T13:28:05.668Z,30.52
2023-07-27T13:30:34.320Z,30.53
2023-07-27T13:33:02.443Z,30.39
2023-07-27T13:35:29.500Z,30.58
2023-07-27T13:37:56.697Z,30.66
2023-07-27T13:40:23.512Z,30.84
2023-07-27T13:42:50.306Z,30.88
2023-07-27T13:45:17.098Z,30.88
2023-07-27T13:47:57.390Z,30.89
2023-07-27T13:50:30.832Z,30.93
2023-07-27T13:52:57.648Z,31.09
2023-07-27T13:55:24.800Z,31.17
2023-07-27T13:57:51.677Z,31.14
2023-07-27T14:00:18.718Z,31.21
2023-07-27T14:02:45.673Z,31.23
2023-07-27T14:05:14.381Z,31.26
2023-07-27T14:07:41.205Z,31.29
2023-07-27T14:10:09.575Z,31.30
2023-07-27T14:12:36.343Z,31.35
2023-07-27T14:15:03.379Z,31.34
2023-07-27T14:17:30.122Z,31.37
2023-07-27T14:19:58.096Z,31.36
2023-07-27T14:22:24.849Z,31.45
2023-07-27T14:24:52.554Z,31.49
2023-07-27T14:27:19.359Z,31.53
2023-07-27T14:29:46.083Z,31.53
2023-07-27T14:32:15.274Z,31.61
2023-07-27T14:34:42.139Z,31.62
2023-07-27T14:37:09.032Z,31.62
2023-07-27T14:42:06.202Z,31.75
2023-07-27T14:44:32.954Z,31.85
2023-07-27T14:47:01.109Z,31.92
2023-07-27T14:49:28.413Z,32.04
2023-07-27T14:52:06.585Z,32.08
2023-07-27T14:54:33.437Z,32.17
2023-07-27T14:57:02.357Z,32.31
2023-07-27T14:59:30.153Z,32.38
2023-07-27T15:02:15.652Z,32.46
2023-07-27T15:07:13.399Z,32.45
2023-07-27T15:09:40.164Z,32.52
2023-07-27T15:12:08.506Z,32.53
2023-07-27T15:14:35.343Z,32.51
2023-07-27T15:17:02.129Z,32.50
2023-07-27T15:19:28.985Z,32.50
2023-07-27T15:21:55.870Z,32.52
2023-07-27T15:24:23.534Z,32.39
2023-07-27T15:26:52.174Z,32.37
2023-07-27T15:29:19.123Z,32.33
2023-07-27T15:31:45.977Z,32.34
2023-07-27T15:34:12.785Z,32.16
2023-07-27T15:36:39.587Z,32.16
2023-07-27T15:39:06.488Z,32.32
2023-07-27T15:41:33.329Z,32.47
2023-07-27T15:44:00.204Z,32.39
2023-07-27T15:46:27.065Z,32.52
2023-07-27T15:48:53.844Z,32.40
2023-07-27T15:51:21.566Z,32.50
2023-07-27T15:53:49.126Z,32.67
2023-07-27T15:56:16.297Z,32.78
2023-07-27T15:58:43.189Z,32.75
2023-07-27T16:01:10.276Z,32.75
2023-07-27T16:03:37.318Z,32.71
2023-07-27T16:06:05.643Z,32.82
2023-07-27T16:08:32.412Z,32.87
2023-07-27T16:10:59.243Z,32.75
2023-07-27T16:13:26.018Z,32.76
2023-07-27T16:15:52.819Z,32.66
2023-07-27T16:18:19.665Z,32.52
2023-07-27T16:20:46.467Z,32.29
2023-07-27T16:23:14.500Z,32.17
2023-07-27T16:25:42.608Z,32.07
2023-07-27T16:28:09.482Z,32.00
2023-07-27T16:30:40.761Z,31.84
2023-07-27T16:33:07.563Z,31.76
2023-07-27T16:35:34.501Z,31.72
2023-07-27T16:38:01.449Z,31.62
2023-07-27T16:40:28.234Z,31.79
2023-07-27T16:42:54.961Z,31.97
2023-07-27T16:45:21.790Z,32.03
2023-07-27T16:47:48.669Z,32.06
2023-07-27T16:50:15.450Z,31.97
2023-07-27T16:52:42.187Z,31.81
2023-07-27T16:55:09.413Z,31.75
2023-07-27T16:57:36.225Z,31.64
2023-07-27T17:00:03.155Z,31.51
2023-07-27T17:02:30.378Z,31.36
2023-07-27T17:04:57.203Z,31.20
2023-07-27T17:07:24.090Z,31.09
2023-07-27T17:09:51.286Z,31.01
2023-07-27T17:12:18.229Z,30.87
2023-07-27T17:14:46.047Z,30.83
2023-07-27T17:17:12.913Z,30.74
2023-07-27T17:19:39.678Z,30.64
2023-07-27T17:22:06.631Z,30.56
2023-07-27T17:24:33.405Z,30.53
2023-07-27T17:27:00.166Z,30.43
2023-07-27T17:29:26.940Z,30.46
2023-07-27T17:31:53.770Z,30.32
2023-07-27T17:34:20.569Z,30.34
2023-07-27T17:36:47.407Z,30.37
2023-07-27T17:39:14.274Z,30.30
2023-07-27T17:41:41.061Z,30.32
2023-07-27T17:44:08.038Z,30.26
2023-07-27T17:46:35.053Z,30.21
2023-07-27T17:49:01.860Z,30.14
2023-07-27T17:51:28.649Z,30.10
2023-07-27T17:53:55.457Z,30.14
2023-07-27T17:56:22.297Z,30.14
2023-07-27T17:58:49.089Z,30.15
2023-07-27T18:01:15.933Z,30.18
2023-07-27T18:03:43.160Z,30.18
2023-07-27T18:06:11.231Z,30.11
2023-07-27T18:08:38.872Z,30.06
2023-07-27T18:11:13.409Z,30.05
2023-07-27T18:13:41.916Z,30.02
2023-07-27T18:16:13.921Z,30.05
2023-07-27T18:18:41.502Z,30.01
2023-07-27T18:21:14.137Z,30.03
2023-07-27T18:23:40.842Z,30.09
2023-07-27T18:26:07.816Z,30.01
2023-07-27T18:28:34.746Z,29.98
2023-07-27T18:31:05.815Z,29.88
2023-07-27T18:33:33.752Z,29.91
2023-07-27T18:36:11.856Z,29.81
2023-07-27T18:38:40.412Z,29.81
2023-07-27T18:41:07.619Z,29.74
2023-07-27T18:43:34.829Z,29.69
2023-07-27T18:46:01.710Z,29.71
2023-07-27T18:48:29.563Z,29.63
2023-07-27T18:50:56.961Z,29.61
2023-07-27T18:53:23.707Z,29.59
2023-07-27T18:55:51.415Z,29.59
2023-07-27T18:58:18.512Z,29.62
2023-07-27T19:00:50.102Z,29.63
2023-07-27T19:03:17.218Z,29.58
2023-07-27T19:05:43.952Z,29.52
2023-07-27T19:08:10.737Z,29.44
2023-07-27T19:10:37.529Z,29.41
2023-07-27T19:13:04.284Z,29.41
2023-07-27T19:15:31.108Z,29.42
2023-07-27T19:17:57.963Z,29.43
2023-07-27T19:20:24.757Z,29.41
2023-07-27T19:22:52.283Z,29.42
2023-07-27T19:25:19.265Z,29.40
2023-07-27T19:27:47.002Z,29.36
2023-07-27T19:30:15.094Z,29.34
2023-07-27T19:32:42.895Z,29.30
2023-07-27T19:35:10.689Z,29.27
2023-07-27T19:37:37.592Z,29.24
2023-07-27T19:40:04.715Z,29.18
2023-07-27T19:42:31.636Z,29.19
2023-07-27T19:44:59.394Z,29.16
2023-07-27T19:47:26.227Z,29.16
2023-07-27T19:50:04.611Z,29.16
2023-07-27T19:52:32.593Z,29.10
2023-07-27T19:54:59.377Z,29.07
2023-07-27T19:57:26.170Z,28.94
2023-07-27T19:59:56.304Z,29.04
2023-07-27T20:02:24.330Z,29.07
2023-07-27T20:04:52.143Z,29.07
2023-07-27T20:07:22.872Z,29.10
2023-07-27T20:09:51.361Z,29.10
2023-07-27T20:12:21.251Z,29.09
2023-07-27T20:14:48.446Z,29.07
2023-07-27T20:17:17.529Z,28.99
2023-07-27T20:19:44.416Z,28.96
2023-07-27T20:22:11.159Z,28.95
2023-07-27T20:24:39.077Z,28.91
2023-07-27T20:27:07.199Z,28.88
2023-07-27T20:29:34.008Z,28.76
2023-07-27T20:32:00.820Z,28.83
2023-07-27T20:34:27.566Z,28.82
2023-07-27T20:36:54.482Z,28.79
2023-07-27T20:39:23.975Z,28.76
2023-07-27T20:41:54.856Z,28.80
2023-07-27T20:44:22.299Z,28.77
2023-07-27T20:46:49.425Z,28.73
2023-07-27T20:49:16.443Z,28.69
2023-07-27T20:51:43.216Z,28.51
2023-07-27T20:54:10.334Z,28.46
2023-07-27T20:56:37.516Z,28.54
2023-07-27T20:59:04.605Z,28.58
2023-07-27T21:01:31.581Z,28.59
2023-07-27T21:03:58.586Z,28.50
2023-07-27T21:06:27.381Z,28.23
2023-07-27T21:08:54.958Z,27.87
2023-07-27T21:11:21.931Z,27.47
2023-07-27T21:13:48.711Z,27.38
2023-07-27T21:16:15.497Z,27.32
2023-07-27T21:18:43.153Z,27.43
2023-07-27T21:21:19.026Z,27.40
2023-07-27T21:23:47.201Z,27.33
2023-07-27T21:26:14.733Z,26.94
2023-07-27T21:28:41.582Z,26.77
2023-07-27T21:31:08.525Z,26.73
2023-07-27T21:33:35.448Z,26.72
2023-07-27T21:36:02.368Z,26.84
2023-07-27T21:38:29.179Z,26.82
2023-07-27T21:40:57.520Z,26.73
2023-07-27T21:43:25.316Z,26.78
2023-07-27T21:45:54.557Z,26.51
2023-07-27T21:48:22.401Z,26.52
2023-07-27T21:50:50.666Z,26.52
2023-07-27T21:53:18.210Z,26.54
2023-07-27T21:55:45.606Z,26.57
2023-07-27T21:58:12.891Z,26.57
2023-07-27T22:00:40.025Z,26.70
2023-07-27T22:03:07.032Z,26.48
2023-07-27T22:05:33.868Z,26.64
2023-07-27T22:08:00.654Z,26.80
2023-07-27T22:10:27.394Z,26.81
2023-07-27T22:12:54.170Z,26.78
2023-07-27T22:15:21.022Z,26.63
2023-07-27T22:17:49.617Z,26.75
2023-07-27T22:20:17.120Z,26.81
2023-07-27T22:22:43.968Z,26.89
2023-07-27T22:25:11.445Z,26.89
2023-07-27T22:27:38.486Z,26.96
2023-07-27T22:30:06.191Z,27.01
2023-07-27T22:32:33.142Z,27.06
2023-07-27T22:35:00.770Z,27.02
2023-07-27T22:37:27.674Z,26.95
2023-07-27T22:39:54.660Z,26.68
2023-07-27T22:42:21.410Z,26.67
2023-07-27T22:44:48.389Z,26.74
2023-07-27T22:47:15.496Z,26.38
2023-07-27T22:49:42.395Z,26.11
2023-07-27T22:52:09.233Z,25.89
2023-07-27T22:54:36.134Z,25.48
2023-07-27T22:57:02.928Z,25.61
2023-07-27T22:59:29.824Z,25.58
2023-07-27T23:01:59.005Z,25.67
2023-07-27T23:04:26.753Z,25.78
2023-07-27T23:06:55.669Z,25.63
2023-07-27T23:09:22.620Z,25.72
2023-07-27T23:11:49.429Z,25.51
2023-07-27T23:14:16.220Z,25.22
2023-07-27T23:16:43.038Z,25.12
2023-07-27T23:19:09.834Z,25.04
2023-07-27T23:21:36.656Z,25.02
2023-07-27T23:24:03.562Z,25.01
2023-07-27T23:26:30.447Z,25.11
2023-07-27T23:28:57.762Z,25.22
2023-07-27T23:31:24.519Z,25.31
2023-07-27T23:33:51.361Z,25.46
2023-07-27T23:36:18.124Z,25.57
2023-07-27T23:38:44.891Z,25.59
2023-07-27T23:41:11.627Z,25.57
2023-07-27T23:43:38.547Z,25.58
2023-07-27T23:46:05.365Z,25.64
2023-07-27T23:48:32.289Z,25.65
2023-07-27T23:50:59.130Z,25.66
2023-07-27T23:53:25.990Z,25.59
2023-07-27T23:55:52.774Z,25.43
2023-07-27T23:58:19.631Z,25.47
